sensor_id;sensor_type;location;lat;lon;timestamp;P1;durP1;ratioP1;P2;durP2;ratioP2
22715;SDS011;11525;51.152;4.456;2024-01-30T00:01:25;11.27;;;9.85;;
22715;SDS011;11525;51.152;4.456;2024-01-30T00:03:51;12.65;;;10.20;;
22715;SDS011;11525;51.152;4.456;2024-01-30T00:06:20;16.65;;;10.02;;
22715;SDS011;11525;51.152;4.456;2024-01-30T00:08:46;12.05;;;9.30;;
22715;SDS011;11525;51.152;4.456;2024-01-30T00:11:14;12.63;;;9.52;;
22715;SDS011;11525;51.152;4.456;2024-01-30T00:13:40;11.60;;;8.95;;
22715;SDS011;11525;51.152;4.456;2024-01-30T00:16:06;14.32;;;9.73;;
22715;SDS011;11525;51.152;4.456;2024-01-30T00:18:33;13.15;;;9.43;;
22715;SDS011;11525;51.152;4.456;2024-01-30T00:20:58;12.15;;;9.15;;
22715;SDS011;11525;51.152;4.456;2024-01-30T00:23:24;12.85;;;9.05;;
22715;SDS011;11525;51.152;4.456;2024-01-30T00:25:50;11.70;;;9.35;;
22715;SDS011;11525;51.152;4.456;2024-01-30T00:28:16;9.90;;;8.85;;
22715;SDS011;11525;51.152;4.456;2024-01-30T00:30:41;16.88;;;9.25;;
22715;SDS011;11525;51.152;4.456;2024-01-30T00:33:07;11.82;;;8.95;;
22715;SDS011;11525;51.152;4.456;2024-01-30T00:35:34;10.07;;;8.90;;
22715;SDS011;11525;51.152;4.456;2024-01-30T00:38:00;13.13;;;9.38;;
22715;SDS011;11525;51.152;4.456;2024-01-30T00:40:26;10.98;;;9.02;;
22715;SDS011;11525;51.152;4.456;2024-01-30T00:42:51;10.40;;;8.80;;
22715;SDS011;11525;51.152;4.456;2024-01-30T00:45:17;11.98;;;8.80;;
22715;SDS011;11525;51.152;4.456;2024-01-30T00:47:43;10.70;;;9.00;;
22715;SDS011;11525;51.152;4.456;2024-01-30T00:50:10;10.40;;;8.75;;
22715;SDS011;11525;51.152;4.456;2024-01-30T00:52:36;11.20;;;8.68;;
22715;SDS011;11525;51.152;4.456;2024-01-30T00:55:04;11.98;;;9.20;;
22715;SDS011;11525;51.152;4.456;2024-01-30T00:57:30;11.15;;;8.63;;
22715;SDS011;11525;51.152;4.456;2024-01-30T00:59:55;14.57;;;9.95;;
22715;SDS011;11525;51.152;4.456;2024-01-30T01:02:25;13.45;;;9.13;;
22715;SDS011;11525;51.152;4.456;2024-01-30T01:04:50;12.52;;;9.25;;
22715;SDS011;11525;51.152;4.456;2024-01-30T01:07:16;11.40;;;8.68;;
22715;SDS011;11525;51.152;4.456;2024-01-30T01:09:42;11.73;;;9.35;;
22715;SDS011;11525;51.152;4.456;2024-01-30T01:12:07;12.02;;;8.93;;
22715;SDS011;11525;51.152;4.456;2024-01-30T01:14:33;11.77;;;9.38;;
22715;SDS011;11525;51.152;4.456;2024-01-30T01:16:59;12.02;;;9.75;;
22715;SDS011;11525;51.152;4.456;2024-01-30T01:19:24;14.80;;;9.48;;
22715;SDS011;11525;51.152;4.456;2024-01-30T01:21:50;11.95;;;9.52;;
22715;SDS011;11525;51.152;4.456;2024-01-30T01:24:16;12.93;;;8.95;;
22715;SDS011;11525;51.152;4.456;2024-01-30T01:26:44;10.50;;;8.95;;
22715;SDS011;11525;51.152;4.456;2024-01-30T01:29:10;12.32;;;8.88;;
22715;SDS011;11525;51.152;4.456;2024-01-30T01:31:37;13.90;;;10.43;;
22715;SDS011;11525;51.152;4.456;2024-01-30T01:34:09;13.73;;;9.77;;
22715;SDS011;11525;51.152;4.456;2024-01-30T01:36:36;12.05;;;9.55;;
22715;SDS011;11525;51.152;4.456;2024-01-30T01:39:02;13.45;;;9.60;;
22715;SDS011;11525;51.152;4.456;2024-01-30T01:41:31;14.68;;;9.85;;
22715;SDS011;11525;51.152;4.456;2024-01-30T01:43:58;13.75;;;9.98;;
22715;SDS011;11525;51.152;4.456;2024-01-30T01:46:26;11.63;;;8.98;;
22715;SDS011;11525;51.152;4.456;2024-01-30T01:48:53;11.45;;;9.45;;
22715;SDS011;11525;51.152;4.456;2024-01-30T01:51:19;14.50;;;10.20;;
22715;SDS011;11525;51.152;4.456;2024-01-30T01:53:46;13.10;;;10.05;;
22715;SDS011;11525;51.152;4.456;2024-01-30T01:56:12;14.05;;;9.60;;
22715;SDS011;11525;51.152;4.456;2024-01-30T01:58:38;14.05;;;9.40;;
22715;SDS011;11525;51.152;4.456;2024-01-30T02:01:04;12.07;;;9.45;;
22715;SDS011;11525;51.152;4.456;2024-01-30T02:03:30;14.02;;;9.07;;
22715;SDS011;11525;51.152;4.456;2024-01-30T02:05:56;12.00;;;10.02;;
22715;SDS011;11525;51.152;4.456;2024-01-30T02:08:22;14.52;;;9.48;;
22715;SDS011;11525;51.152;4.456;2024-01-30T02:10:49;14.25;;;9.77;;
22715;SDS011;11525;51.152;4.456;2024-01-30T02:13:15;14.23;;;9.80;;
22715;SDS011;11525;51.152;4.456;2024-01-30T02:15:41;11.52;;;9.48;;
22715;SDS011;11525;51.152;4.456;2024-01-30T02:18:06;14.68;;;10.02;;
22715;SDS011;11525;51.152;4.456;2024-01-30T02:20:32;13.95;;;9.88;;
22715;SDS011;11525;51.152;4.456;2024-01-30T02:23:00;11.77;;;9.30;;
22715;SDS011;11525;51.152;4.456;2024-01-30T02:25:34;15.02;;;9.88;;
22715;SDS011;11525;51.152;4.456;2024-01-30T02:28:01;13.15;;;9.32;;
22715;SDS011;11525;51.152;4.456;2024-01-30T02:30:27;16.55;;;9.75;;
22715;SDS011;11525;51.152;4.456;2024-01-30T02:32:53;12.93;;;9.65;;
22715;SDS011;11525;51.152;4.456;2024-01-30T02:35:18;13.85;;;9.57;;
22715;SDS011;11525;51.152;4.456;2024-01-30T02:37:44;14.38;;;10.35;;
22715;SDS011;11525;51.152;4.456;2024-01-30T02:40:10;12.75;;;9.82;;
22715;SDS011;11525;51.152;4.456;2024-01-30T02:42:35;13.35;;;10.00;;
22715;SDS011;11525;51.152;4.456;2024-01-30T02:45:01;11.43;;;9.68;;
22715;SDS011;11525;51.152;4.456;2024-01-30T02:47:27;11.73;;;9.85;;
22715;SDS011;11525;51.152;4.456;2024-01-30T02:49:52;17.23;;;9.60;;
22715;SDS011;11525;51.152;4.456;2024-01-30T02:52:18;14.75;;;9.85;;
22715;SDS011;11525;51.152;4.456;2024-01-30T02:54:44;13.77;;;9.35;;
22715;SDS011;11525;51.152;4.456;2024-01-30T02:57:10;14.07;;;9.93;;
22715;SDS011;11525;51.152;4.456;2024-01-30T02:59:35;15.18;;;9.95;;
22715;SDS011;11525;51.152;4.456;2024-01-30T03:02:01;13.88;;;10.10;;
22715;SDS011;11525;51.152;4.456;2024-01-30T03:04:27;14.30;;;9.90;;
22715;SDS011;11525;51.152;4.456;2024-01-30T03:06:55;15.20;;;10.75;;
22715;SDS011;11525;51.152;4.456;2024-01-30T03:09:20;16.20;;;10.55;;
22715;SDS011;11525;51.152;4.456;2024-01-30T03:11:46;13.05;;;9.55;;
22715;SDS011;11525;51.152;4.456;2024-01-30T03:14:11;13.10;;;9.95;;
22715;SDS011;11525;51.152;4.456;2024-01-30T03:16:37;13.15;;;9.52;;
22715;SDS011;11525;51.152;4.456;2024-01-30T03:19:03;13.05;;;9.57;;
22715;SDS011;11525;51.152;4.456;2024-01-30T03:21:32;11.40;;;9.73;;
22715;SDS011;11525;51.152;4.456;2024-01-30T03:23:58;12.85;;;9.85;;
22715;SDS011;11525;51.152;4.456;2024-01-30T03:26:24;15.90;;;9.48;;
22715;SDS011;11525;51.152;4.456;2024-01-30T03:28:50;14.85;;;9.80;;
22715;SDS011;11525;51.152;4.456;2024-01-30T03:31:16;12.85;;;9.18;;
22715;SDS011;11525;51.152;4.456;2024-01-30T03:33:42;15.20;;;9.80;;
22715;SDS011;11525;51.152;4.456;2024-01-30T03:36:08;12.82;;;9.40;;
22715;SDS011;11525;51.152;4.456;2024-01-30T03:38:34;16.85;;;9.38;;
22715;SDS011;11525;51.152;4.456;2024-01-30T03:41:00;12.38;;;9.52;;
22715;SDS011;11525;51.152;4.456;2024-01-30T03:43:26;13.57;;;9.05;;
22715;SDS011;11525;51.152;4.456;2024-01-30T03:45:52;12.10;;;9.10;;
22715;SDS011;11525;51.152;4.456;2024-01-30T03:48:18;13.55;;;10.13;;
22715;SDS011;11525;51.152;4.456;2024-01-30T03:50:44;14.88;;;9.90;;
22715;SDS011;11525;51.152;4.456;2024-01-30T03:53:09;13.77;;;9.98;;
22715;SDS011;11525;51.152;4.456;2024-01-30T03:55:35;16.70;;;9.68;;
22715;SDS011;11525;51.152;4.456;2024-01-30T03:58:01;14.32;;;9.40;;
22715;SDS011;11525;51.152;4.456;2024-01-30T04:00:27;11.85;;;9.38;;
22715;SDS011;11525;51.152;4.456;2024-01-30T04:02:53;12.70;;;9.05;;
22715;SDS011;11525;51.152;4.456;2024-01-30T04:05:18;14.85;;;9.82;;
22715;SDS011;11525;51.152;4.456;2024-01-30T04:07:44;15.30;;;9.60;;
22715;SDS011;11525;51.152;4.456;2024-01-30T04:10:10;12.98;;;9.68;;
22715;SDS011;11525;51.152;4.456;2024-01-30T04:12:35;16.52;;;10.15;;
22715;SDS011;11525;51.152;4.456;2024-01-30T04:15:01;16.02;;;9.70;;
22715;SDS011;11525;51.152;4.456;2024-01-30T04:17:28;15.57;;;10.27;;
22715;SDS011;11525;51.152;4.456;2024-01-30T04:19:54;14.23;;;10.05;;
22715;SDS011;11525;51.152;4.456;2024-01-30T04:22:20;14.75;;;9.43;;
22715;SDS011;11525;51.152;4.456;2024-01-30T04:24:46;17.35;;;10.35;;
22715;SDS011;11525;51.152;4.456;2024-01-30T04:27:11;14.98;;;9.65;;
22715;SDS011;11525;51.152;4.456;2024-01-30T04:29:37;13.88;;;9.20;;
22715;SDS011;11525;51.152;4.456;2024-01-30T04:32:03;14.00;;;9.70;;
22715;SDS011;11525;51.152;4.456;2024-01-30T04:34:32;13.93;;;9.20;;
22715;SDS011;11525;51.152;4.456;2024-01-30T04:36:58;16.52;;;10.13;;
22715;SDS011;11525;51.152;4.456;2024-01-30T04:39:24;12.60;;;8.63;;
22715;SDS011;11525;51.152;4.456;2024-01-30T04:41:49;17.73;;;10.68;;
22715;SDS011;11525;51.152;4.456;2024-01-30T04:44:15;13.32;;;9.75;;
22715;SDS011;11525;51.152;4.456;2024-01-30T04:46:40;15.02;;;9.35;;
22715;SDS011;11525;51.152;4.456;2024-01-30T04:49:06;13.18;;;8.85;;
22715;SDS011;11525;51.152;4.456;2024-01-30T04:51:34;13.80;;;9.85;;
22715;SDS011;11525;51.152;4.456;2024-01-30T04:54:00;14.50;;;9.07;;
22715;SDS011;11525;51.152;4.456;2024-01-30T04:56:25;13.45;;;9.43;;
22715;SDS011;11525;51.152;4.456;2024-01-30T04:58:51;12.68;;;9.32;;
22715;SDS011;11525;51.152;4.456;2024-01-30T05:01:17;12.50;;;8.70;;
22715;SDS011;11525;51.152;4.456;2024-01-30T05:03:42;16.30;;;9.98;;
22715;SDS011;11525;51.152;4.456;2024-01-30T05:06:08;11.95;;;9.18;;
22715;SDS011;11525;51.152;4.456;2024-01-30T05:08:35;11.52;;;8.68;;
22715;SDS011;11525;51.152;4.456;2024-01-30T05:11:07;19.98;;;10.30;;
22715;SDS011;11525;51.152;4.456;2024-01-30T05:13:32;14.88;;;10.00;;
22715;SDS011;11525;51.152;4.456;2024-01-30T05:15:58;15.68;;;9.50;;
22715;SDS011;11525;51.152;4.456;2024-01-30T05:18:24;13.90;;;9.13;;
22715;SDS011;11525;51.152;4.456;2024-01-30T05:20:50;13.57;;;9.77;;
22715;SDS011;11525;51.152;4.456;2024-01-30T05:23:16;14.05;;;9.77;;
22715;SDS011;11525;51.152;4.456;2024-01-30T05:25:41;13.95;;;9.57;;
22715;SDS011;11525;51.152;4.456;2024-01-30T05:28:07;12.70;;;9.32;;
22715;SDS011;11525;51.152;4.456;2024-01-30T05:30:33;15.55;;;9.80;;
22715;SDS011;11525;51.152;4.456;2024-01-30T05:32:58;17.27;;;10.82;;
22715;SDS011;11525;51.152;4.456;2024-01-30T05:35:24;17.77;;;10.35;;
22715;SDS011;11525;51.152;4.456;2024-01-30T05:37:50;14.90;;;9.63;;
22715;SDS011;11525;51.152;4.456;2024-01-30T05:40:16;13.60;;;10.10;;
22715;SDS011;11525;51.152;4.456;2024-01-30T05:42:41;12.23;;;9.90;;
22715;SDS011;11525;51.152;4.456;2024-01-30T05:45:07;14.13;;;9.63;;
22715;SDS011;11525;51.152;4.456;2024-01-30T05:47:34;14.32;;;9.35;;
22715;SDS011;11525;51.152;4.456;2024-01-30T05:49:59;12.23;;;9.32;;
22715;SDS011;11525;51.152;4.456;2024-01-30T05:52:25;12.88;;;9.70;;
22715;SDS011;11525;51.152;4.456;2024-01-30T05:54:51;16.02;;;9.95;;
22715;SDS011;11525;51.152;4.456;2024-01-30T05:57:16;14.48;;;10.50;;
22715;SDS011;11525;51.152;4.456;2024-01-30T05:59:42;16.13;;;9.57;;
22715;SDS011;11525;51.152;4.456;2024-01-30T06:02:10;15.75;;;10.18;;
22715;SDS011;11525;51.152;4.456;2024-01-30T06:04:36;17.13;;;9.75;;
22715;SDS011;11525;51.152;4.456;2024-01-30T06:07:02;17.20;;;10.63;;
22715;SDS011;11525;51.152;4.456;2024-01-30T06:09:28;11.82;;;7.85;;
22715;SDS011;11525;51.152;4.456;2024-01-30T06:11:54;17.20;;;10.27;;
22715;SDS011;11525;51.152;4.456;2024-01-30T06:14:20;20.10;;;10.30;;
22715;SDS011;11525;51.152;4.456;2024-01-30T06:16:45;16.65;;;10.98;;
22715;SDS011;11525;51.152;4.456;2024-01-30T06:19:11;17.02;;;10.40;;
22715;SDS011;11525;51.152;4.456;2024-01-30T06:21:37;14.40;;;9.77;;
22715;SDS011;11525;51.152;4.456;2024-01-30T06:24:03;17.65;;;10.82;;
22715;SDS011;11525;51.152;4.456;2024-01-30T06:26:29;16.33;;;10.27;;
22715;SDS011;11525;51.152;4.456;2024-01-30T06:28:55;17.38;;;10.50;;
22715;SDS011;11525;51.152;4.456;2024-01-30T06:31:20;14.43;;;9.68;;
22715;SDS011;11525;51.152;4.456;2024-01-30T06:33:46;18.33;;;11.23;;
22715;SDS011;11525;51.152;4.456;2024-01-30T06:36:12;17.35;;;10.50;;
22715;SDS011;11525;51.152;4.456;2024-01-30T06:38:39;16.80;;;10.90;;
22715;SDS011;11525;51.152;4.456;2024-01-30T06:41:05;16.88;;;10.80;;
22715;SDS011;11525;51.152;4.456;2024-01-30T06:43:31;17.73;;;10.65;;
22715;SDS011;11525;51.152;4.456;2024-01-30T06:45:56;14.65;;;10.20;;
22715;SDS011;11525;51.152;4.456;2024-01-30T06:48:22;20.00;;;10.85;;
22715;SDS011;11525;51.152;4.456;2024-01-30T06:50:48;18.10;;;10.55;;
22715;SDS011;11525;51.152;4.456;2024-01-30T06:53:14;23.80;;;11.15;;
22715;SDS011;11525;51.152;4.456;2024-01-30T06:55:40;15.68;;;10.05;;
22715;SDS011;11525;51.152;4.456;2024-01-30T06:58:06;19.85;;;11.18;;
22715;SDS011;11525;51.152;4.456;2024-01-30T07:00:31;18.98;;;10.43;;
22715;SDS011;11525;51.152;4.456;2024-01-30T07:02:57;17.60;;;10.35;;
22715;SDS011;11525;51.152;4.456;2024-01-30T07:05:23;14.65;;;9.55;;
22715;SDS011;11525;51.152;4.456;2024-01-30T07:07:48;14.25;;;10.38;;
22715;SDS011;11525;51.152;4.456;2024-01-30T07:10:14;16.50;;;10.35;;
22715;SDS011;11525;51.152;4.456;2024-01-30T07:12:40;17.48;;;10.40;;
22715;SDS011;11525;51.152;4.456;2024-01-30T07:15:05;16.40;;;10.38;;
22715;SDS011;11525;51.152;4.456;2024-01-30T07:17:34;16.52;;;9.70;;
22715;SDS011;11525;51.152;4.456;2024-01-30T07:20:00;16.80;;;11.13;;
22715;SDS011;11525;51.152;4.456;2024-01-30T07:22:28;17.43;;;9.83;;
22715;SDS011;11525;51.152;4.456;2024-01-30T07:24:55;16.23;;;9.50;;
22715;SDS011;11525;51.152;4.456;2024-01-30T07:27:20;18.00;;;10.30;;
22715;SDS011;11525;51.152;4.456;2024-01-30T07:29:46;20.17;;;10.57;;
22715;SDS011;11525;51.152;4.456;2024-01-30T07:32:12;17.15;;;10.70;;
22715;SDS011;11525;51.152;4.456;2024-01-30T07:34:38;18.88;;;10.07;;
22715;SDS011;11525;51.152;4.456;2024-01-30T07:37:03;17.83;;;10.95;;
22715;SDS011;11525;51.152;4.456;2024-01-30T07:39:29;17.77;;;10.32;;
22715;SDS011;11525;51.152;4.456;2024-01-30T07:41:55;19.58;;;10.98;;
22715;SDS011;11525;51.152;4.456;2024-01-30T07:44:20;20.45;;;11.15;;
22715;SDS011;11525;51.152;4.456;2024-01-30T07:46:47;20.13;;;10.77;;
22715;SDS011;11525;51.152;4.456;2024-01-30T07:49:12;14.48;;;10.18;;
22715;SDS011;11525;51.152;4.456;2024-01-30T07:51:39;15.30;;;10.07;;
22715;SDS011;11525;51.152;4.456;2024-01-30T07:54:14;21.13;;;11.02;;
22715;SDS011;11525;51.152;4.456;2024-01-30T07:56:40;16.48;;;10.75;;
22715;SDS011;11525;51.152;4.456;2024-01-30T07:59:09;23.30;;;11.77;;
22715;SDS011;11525;51.152;4.456;2024-01-30T08:01:35;20.70;;;11.60;;
22715;SDS011;11525;51.152;4.456;2024-01-30T08:04:00;17.25;;;10.77;;
22715;SDS011;11525;51.152;4.456;2024-01-30T08:06:26;15.82;;;11.48;;
22715;SDS011;11525;51.152;4.456;2024-01-30T08:08:52;19.90;;;11.65;;
22715;SDS011;11525;51.152;4.456;2024-01-30T08:11:19;16.50;;;11.45;;
22715;SDS011;11525;51.152;4.456;2024-01-30T08:13:50;17.40;;;10.80;;
22715;SDS011;11525;51.152;4.456;2024-01-30T08:16:16;21.15;;;11.05;;
22715;SDS011;11525;51.152;4.456;2024-01-30T08:18:42;16.90;;;10.10;;
22715;SDS011;11525;51.152;4.456;2024-01-30T08:21:08;15.18;;;10.35;;
22715;SDS011;11525;51.152;4.456;2024-01-30T08:23:34;14.93;;;10.43;;
22715;SDS011;11525;51.152;4.456;2024-01-30T08:26:00;19.42;;;11.32;;
22715;SDS011;11525;51.152;4.456;2024-01-30T08:28:26;17.00;;;9.95;;
22715;SDS011;11525;51.152;4.456;2024-01-30T08:30:52;18.30;;;10.20;;
22715;SDS011;11525;51.152;4.456;2024-01-30T08:33:17;19.48;;;11.10;;
22715;SDS011;11525;51.152;4.456;2024-01-30T08:35:43;13.88;;;10.80;;
22715;SDS011;11525;51.152;4.456;2024-01-30T08:38:09;17.00;;;10.75;;
22715;SDS011;11525;51.152;4.456;2024-01-30T08:40:37;17.63;;;10.32;;
22715;SDS011;11525;51.152;4.456;2024-01-30T08:43:03;17.20;;;10.63;;
22715;SDS011;11525;51.152;4.456;2024-01-30T08:45:29;19.13;;;11.30;;
22715;SDS011;11525;51.152;4.456;2024-01-30T08:47:55;19.23;;;10.07;;
22715;SDS011;11525;51.152;4.456;2024-01-30T08:50:21;22.10;;;10.73;;
22715;SDS011;11525;51.152;4.456;2024-01-30T08:52:47;16.70;;;9.98;;
22715;SDS011;11525;51.152;4.456;2024-01-30T08:55:13;15.93;;;10.05;;
22715;SDS011;11525;51.152;4.456;2024-01-30T08:57:39;18.75;;;10.85;;
22715;SDS011;11525;51.152;4.456;2024-01-30T09:00:05;17.15;;;10.30;;
22715;SDS011;11525;51.152;4.456;2024-01-30T09:02:33;17.70;;;9.43;;
22715;SDS011;11525;51.152;4.456;2024-01-30T09:04:59;14.23;;;10.27;;
22715;SDS011;11525;51.152;4.456;2024-01-30T09:07:25;15.10;;;10.57;;
22715;SDS011;11525;51.152;4.456;2024-01-30T09:09:50;16.17;;;9.93;;
22715;SDS011;11525;51.152;4.456;2024-01-30T09:12:16;15.70;;;9.90;;
22715;SDS011;11525;51.152;4.456;2024-01-30T09:14:42;12.60;;;9.88;;
22715;SDS011;11525;51.152;4.456;2024-01-30T09:17:08;14.93;;;10.57;;
22715;SDS011;11525;51.152;4.456;2024-01-30T09:19:34;15.65;;;10.38;;
22715;SDS011;11525;51.152;4.456;2024-01-30T09:21:59;15.70;;;10.50;;
22715;SDS011;11525;51.152;4.456;2024-01-30T09:24:25;18.10;;;10.00;;
22715;SDS011;11525;51.152;4.456;2024-01-30T09:26:51;18.38;;;10.57;;
22715;SDS011;11525;51.152;4.456;2024-01-30T09:29:17;19.48;;;10.95;;
22715;SDS011;11525;51.152;4.456;2024-01-30T09:31:43;18.73;;;10.95;;
22715;SDS011;11525;51.152;4.456;2024-01-30T09:34:13;18.50;;;11.27;;
22715;SDS011;11525;51.152;4.456;2024-01-30T09:36:39;19.05;;;11.05;;
22715;SDS011;11525;51.152;4.456;2024-01-30T09:39:04;15.18;;;9.32;;
22715;SDS011;11525;51.152;4.456;2024-01-30T09:41:36;19.95;;;12.05;;
22715;SDS011;11525;51.152;4.456;2024-01-30T09:44:17;17.88;;;10.38;;
22715;SDS011;11525;51.152;4.456;2024-01-30T09:46:46;19.63;;;11.38;;
22715;SDS011;11525;51.152;4.456;2024-01-30T09:49:19;19.95;;;11.95;;
22715;SDS011;11525;51.152;4.456;2024-01-30T09:51:45;19.80;;;12.60;;
22715;SDS011;11525;51.152;4.456;2024-01-30T09:54:13;18.63;;;12.13;;
22715;SDS011;11525;51.152;4.456;2024-01-30T09:56:40;18.45;;;12.10;;
22715;SDS011;11525;51.152;4.456;2024-01-30T09:59:05;15.30;;;11.30;;
22715;SDS011;11525;51.152;4.456;2024-01-30T10:01:31;15.45;;;11.82;;
22715;SDS011;11525;51.152;4.456;2024-01-30T10:03:59;22.98;;;12.85;;
22715;SDS011;11525;51.152;4.456;2024-01-30T10:06:25;18.83;;;12.55;;
22715;SDS011;11525;51.152;4.456;2024-01-30T10:08:52;23.05;;;12.90;;
22715;SDS011;11525;51.152;4.456;2024-01-30T10:11:18;17.15;;;13.15;;
22715;SDS011;11525;51.152;4.456;2024-01-30T10:13:44;24.63;;;12.80;;
22715;SDS011;11525;51.152;4.456;2024-01-30T10:16:09;20.60;;;12.90;;
22715;SDS011;11525;51.152;4.456;2024-01-30T10:18:35;18.58;;;12.82;;
22715;SDS011;11525;51.152;4.456;2024-01-30T10:21:01;19.42;;;11.80;;
22715;SDS011;11525;51.152;4.456;2024-01-30T10:23:26;20.30;;;13.23;;
22715;SDS011;11525;51.152;4.456;2024-01-30T10:25:52;24.85;;;11.98;;
22715;SDS011;11525;51.152;4.456;2024-01-30T10:28:18;16.88;;;12.52;;
22715;SDS011;11525;51.152;4.456;2024-01-30T10:30:43;19.75;;;12.93;;
22715;SDS011;11525;51.152;4.456;2024-01-30T10:33:09;17.38;;;11.95;;
22715;SDS011;11525;51.152;4.456;2024-01-30T10:35:35;24.00;;;12.75;;
22715;SDS011;11525;51.152;4.456;2024-01-30T10:38:00;14.82;;;10.38;;
22715;SDS011;11525;51.152;4.456;2024-01-30T10:40:27;18.15;;;10.70;;
22715;SDS011;11525;51.152;4.456;2024-01-30T10:42:54;17.05;;;9.43;;
22715;SDS011;11525;51.152;4.456;2024-01-30T10:45:24;14.82;;;9.27;;
22715;SDS011;11525;51.152;4.456;2024-01-30T10:47:53;15.85;;;8.55;;
22715;SDS011;11525;51.152;4.456;2024-01-30T10:50:23;12.80;;;7.32;;
22715;SDS011;11525;51.152;4.456;2024-01-30T10:52:50;9.38;;;5.82;;
22715;SDS011;11525;51.152;4.456;2024-01-30T10:55:17;11.32;;;6.00;;
22715;SDS011;11525;51.152;4.456;2024-01-30T10:57:43;8.30;;;4.35;;
22715;SDS011;11525;51.152;4.456;2024-01-30T11:00:10;8.25;;;3.47;;
22715;SDS011;11525;51.152;4.456;2024-01-30T11:02:41;8.05;;;2.88;;
22715;SDS011;11525;51.152;4.456;2024-01-30T11:05:09;7.38;;;2.92;;
22715;SDS011;11525;51.152;4.456;2024-01-30T11:07:38;5.95;;;2.90;;
22715;SDS011;11525;51.152;4.456;2024-01-30T11:10:04;7.53;;;3.00;;
22715;SDS011;11525;51.152;4.456;2024-01-30T11:12:37;7.57;;;2.55;;
22715;SDS011;11525;51.152;4.456;2024-01-30T11:15:09;5.28;;;2.33;;
22715;SDS011;11525;51.152;4.456;2024-01-30T11:20:21;4.57;;;2.40;;
22715;SDS011;11525;51.152;4.456;2024-01-30T11:22:57;6.05;;;2.40;;
22715;SDS011;11525;51.152;4.456;2024-01-30T11:25:24;6.72;;;1.98;;
22715;SDS011;11525;51.152;4.456;2024-01-30T11:27:54;6.60;;;2.35;;
22715;SDS011;11525;51.152;4.456;2024-01-30T11:30:21;5.57;;;1.98;;
22715;SDS011;11525;51.152;4.456;2024-01-30T11:33:00;4.95;;;1.90;;
22715;SDS011;11525;51.152;4.456;2024-01-30T11:35:29;3.50;;;1.80;;
22715;SDS011;11525;51.152;4.456;2024-01-30T11:38:00;3.10;;;1.60;;
22715;SDS011;11525;51.152;4.456;2024-01-30T11:40:29;5.45;;;1.98;;
22715;SDS011;11525;51.152;4.456;2024-01-30T11:43:00;3.17;;;1.45;;
22715;SDS011;11525;51.152;4.456;2024-01-30T11:45:29;3.95;;;1.52;;
22715;SDS011;11525;51.152;4.456;2024-01-30T11:47:55;3.80;;;1.60;;
22715;SDS011;11525;51.152;4.456;2024-01-30T11:50:21;4.70;;;1.60;;
22715;SDS011;11525;51.152;4.456;2024-01-30T11:52:47;9.20;;;1.88;;
22715;SDS011;11525;51.152;4.456;2024-01-30T11:55:14;5.30;;;1.83;;
22715;SDS011;11525;51.152;4.456;2024-01-30T11:57:40;4.25;;;1.60;;
22715;SDS011;11525;51.152;4.456;2024-01-30T12:00:06;5.22;;;2.08;;
22715;SDS011;11525;51.152;4.456;2024-01-30T12:02:40;5.97;;;2.03;;
22715;SDS011;11525;51.152;4.456;2024-01-30T12:05:06;5.57;;;1.70;;
22715;SDS011;11525;51.152;4.456;2024-01-30T12:07:33;7.22;;;1.73;;
22715;SDS011;11525;51.152;4.456;2024-01-30T12:09:59;2.80;;;1.60;;
22715;SDS011;11525;51.152;4.456;2024-01-30T12:12:25;3.15;;;1.90;;
22715;SDS011;11525;51.152;4.456;2024-01-30T12:14:52;4.55;;;1.90;;
22715;SDS011;11525;51.152;4.456;2024-01-30T12:17:28;4.22;;;2.22;;
22715;SDS011;11525;51.152;4.456;2024-01-30T12:20:08;6.60;;;2.45;;
22715;SDS011;11525;51.152;4.456;2024-01-30T12:22:39;6.75;;;1.90;;
22715;SDS011;11525;51.152;4.456;2024-01-30T12:25:09;3.60;;;1.58;;
22715;SDS011;11525;51.152;4.456;2024-01-30T12:27:36;3.25;;;2.10;;
22715;SDS011;11525;51.152;4.456;2024-01-30T12:30:08;6.15;;;2.13;;
22715;SDS011;11525;51.152;4.456;2024-01-30T12:32:35;4.68;;;1.42;;
22715;SDS011;11525;51.152;4.456;2024-01-30T12:35:26;3.80;;;1.80;;
22715;SDS011;11525;51.152;4.456;2024-01-30T12:37:51;4.30;;;1.50;;
22715;SDS011;11525;51.152;4.456;2024-01-30T12:40:17;4.00;;;1.98;;
22715;SDS011;11525;51.152;4.456;2024-01-30T12:42:43;5.72;;;2.03;;
22715;SDS011;11525;51.152;4.456;2024-01-30T12:45:13;5.10;;;1.90;;
22715;SDS011;11525;51.152;4.456;2024-01-30T12:47:40;7.70;;;2.00;;
22715;SDS011;11525;51.152;4.456;2024-01-30T12:50:06;5.15;;;1.85;;
22715;SDS011;11525;51.152;4.456;2024-01-30T12:52:32;3.30;;;1.70;;
22715;SDS011;11525;51.152;4.456;2024-01-30T12:55:00;5.15;;;2.10;;
22715;SDS011;11525;51.152;4.456;2024-01-30T12:57:26;4.55;;;1.98;;
22715;SDS011;11525;51.152;4.456;2024-01-30T12:59:51;5.78;;;2.05;;
22715;SDS011;11525;51.152;4.456;2024-01-30T13:02:17;2.70;;;1.85;;
22715;SDS011;11525;51.152;4.456;2024-01-30T13:04:43;6.13;;;2.22;;
22715;SDS011;11525;51.152;4.456;2024-01-30T13:07:09;5.55;;;2.05;;
22715;SDS011;11525;51.152;4.456;2024-01-30T13:09:34;5.53;;;2.35;;
22715;SDS011;11525;51.152;4.456;2024-01-30T13:12:00;4.22;;;2.20;;
22715;SDS011;11525;51.152;4.456;2024-01-30T13:14:26;5.85;;;2.38;;
22715;SDS011;11525;51.152;4.456;2024-01-30T13:16:52;4.13;;;2.42;;
22715;SDS011;11525;51.152;4.456;2024-01-30T13:19:17;8.73;;;2.47;;
22715;SDS011;11525;51.152;4.456;2024-01-30T13:21:43;9.73;;;2.22;;
22715;SDS011;11525;51.152;4.456;2024-01-30T13:24:09;7.53;;;2.25;;
22715;SDS011;11525;51.152;4.456;2024-01-30T13:26:35;2.65;;;2.08;;
22715;SDS011;11525;51.152;4.456;2024-01-30T13:29:01;9.48;;;2.50;;
22715;SDS011;11525;51.152;4.456;2024-01-30T13:31:27;4.57;;;2.33;;
22715;SDS011;11525;51.152;4.456;2024-01-30T13:33:53;5.63;;;2.38;;
22715;SDS011;11525;51.152;4.456;2024-01-30T13:36:19;6.70;;;2.22;;
22715;SDS011;11525;51.152;4.456;2024-01-30T13:38:45;3.95;;;2.60;;
22715;SDS011;11525;51.152;4.456;2024-01-30T13:41:11;11.05;;;3.15;;
22715;SDS011;11525;51.152;4.456;2024-01-30T13:43:37;8.23;;;2.50;;
22715;SDS011;11525;51.152;4.456;2024-01-30T13:46:03;9.07;;;2.72;;
22715;SDS011;11525;51.152;4.456;2024-01-30T13:48:28;7.40;;;2.97;;
22715;SDS011;11525;51.152;4.456;2024-01-30T13:50:55;8.10;;;2.67;;
22715;SDS011;11525;51.152;4.456;2024-01-30T13:53:20;6.68;;;2.75;;
22715;SDS011;11525;51.152;4.456;2024-01-30T13:55:46;6.57;;;2.95;;
22715;SDS011;11525;51.152;4.456;2024-01-30T13:58:12;8.85;;;2.55;;
22715;SDS011;11525;51.152;4.456;2024-01-30T14:00:41;5.78;;;2.47;;
22715;SDS011;11525;51.152;4.456;2024-01-30T14:03:07;7.53;;;2.25;;
22715;SDS011;11525;51.152;4.456;2024-01-30T14:05:32;9.80;;;2.55;;
22715;SDS011;11525;51.152;4.456;2024-01-30T14:07:58;6.82;;;2.15;;
22715;SDS011;11525;51.152;4.456;2024-01-30T14:10:25;7.03;;;2.90;;
22715;SDS011;11525;51.152;4.456;2024-01-30T14:12:51;12.40;;;2.58;;
22715;SDS011;11525;51.152;4.456;2024-01-30T14:15:17;7.32;;;2.95;;
22715;SDS011;11525;51.152;4.456;2024-01-30T14:17:43;6.65;;;2.55;;
22715;SDS011;11525;51.152;4.456;2024-01-30T14:20:10;8.15;;;3.13;;
22715;SDS011;11525;51.152;4.456;2024-01-30T14:22:36;6.43;;;2.60;;
22715;SDS011;11525;51.152;4.456;2024-01-30T14:25:02;8.82;;;2.50;;
22715;SDS011;11525;51.152;4.456;2024-01-30T14:27:30;5.78;;;2.58;;
22715;SDS011;11525;51.152;4.456;2024-01-30T14:29:57;5.93;;;2.50;;
22715;SDS011;11525;51.152;4.456;2024-01-30T14:32:23;8.50;;;2.88;;